Map

Track Data

SID SEASON NUMBER BASIN SUBBASIN NAME ISO_TIME NATURE LAT LON WMO_WIND WMO_PRES WMO_AGENCY TRACK_TYPE DIST2LAND LANDFALL IFLAG USA_AGENCY USA_ATCF_ID USA_LAT USA_LON USA_RECORD USA_STATUS USA_WIND USA_PRES USA_SSHS USA_R34_NE USA_R34_SE USA_R34_SW USA_R34_NW USA_R50_NE USA_R50_SE USA_R50_SW USA_R50_NW USA_R64_NE USA_R64_SE USA_R64_SW USA_R64_NW USA_POCI USA_ROCI USA_RMW USA_EYE TOKYO_LAT TOKYO_LON TOKYO_GRADE TOKYO_WIND TOKYO_PRES TOKYO_R50_DIR TOKYO_R50_LONG TOKYO_R50_SHORT TOKYO_R30_DIR TOKYO_R30_LONG TOKYO_R30_SHORT TOKYO_LAND CMA_LAT CMA_LON CMA_CAT CMA_WIND CMA_PRES HKO_LAT HKO_LON HKO_CAT HKO_WIND HKO_PRES NEWDELHI_LAT NEWDELHI_LON NEWDELHI_GRADE NEWDELHI_WIND NEWDELHI_PRES NEWDELHI_CI NEWDELHI_DP NEWDELHI_POCI REUNION_LAT REUNION_LON REUNION_TYPE REUNION_WIND REUNION_PRES REUNION_TNUM REUNION_CI REUNION_RMW REUNION_R34_NE REUNION_R34_SE REUNION_R34_SW REUNION_R34_NW REUNION_R50_NE REUNION_R50_SE REUNION_R50_SW REUNION_R50_NW REUNION_R64_NE REUNION_R64_SE REUNION_R64_SW REUNION_R64_NW BOM_LAT BOM_LON BOM_TYPE BOM_WIND BOM_PRES BOM_TNUM BOM_CI BOM_RMW BOM_R34_NE BOM_R34_SE BOM_R34_SW BOM_R34_NW BOM_R50_NE BOM_R50_SE BOM_R50_SW BOM_R50_NW BOM_R64_NE BOM_R64_SE BOM_R64_SW BOM_R64_NW BOM_ROCI BOM_POCI BOM_EYE BOM_POS_METHOD BOM_PRES_METHOD NADI_LAT NADI_LON NADI_CAT NADI_WIND NADI_PRES WELLINGTON_LAT WELLINGTON_LON WELLINGTON_WIND WELLINGTON_PRES DS824_LAT DS824_LON DS824_STAGE DS824_WIND DS824_PRES TD9636_LAT TD9636_LON TD9636_STAGE TD9636_WIND TD9636_PRES TD9635_LAT TD9635_LON TD9635_WIND TD9635_PRES TD9635_ROCI NEUMANN_LAT NEUMANN_LON NEUMANN_CLASS NEUMANN_WIND NEUMANN_PRES MLC_LAT MLC_LON MLC_CLASS MLC_WIND MLC_PRES USA_GUST BOM_GUST BOM_GUST_PER REUNION_GUST REUNION_GUST_PER USA_SEAHGT USA_SEARAD_NE USA_SEARAD_SE USA_SEARAD_SW USA_SEARAD_NW STORM_SPEED STORM_DIR
1928275N15094 1928 57 NI BB NOT_NAMED 1928-10-01 00:00:00 TS 14.7000 93.5000 main 156 155 _________O____ -1 14.7000 93.5000 TC 30 11 304
1928275N15094 1928 57 NI BB NOT_NAMED 1928-10-01 03:00:00 TS 14.9968 93.0419 main 170 170 _________PO___ -1 15.1453 92.8128 TC 30 14.7000 93.5000 1 13 304
1928275N15094 1928 57 NI BB NOT_NAMED 1928-10-01 06:00:00 TS 15.4316 92.3563 main 204 204 _________OP___ -1 15.6000 92.1000 TC 30 15.1791 92.7407 1 16 303
1928275N15094 1928 57 NI BB NOT_NAMED 1928-10-01 09:00:00 TS 15.8852 91.6373 main 278 278 _________PP___ -1 16.0651 91.3626 TC 30 15.6455 92.0035 1 16 304
1928275N15094 1928 57 NI BB NOT_NAMED 1928-10-01 12:00:00 TS 16.2945 91.0072 main 343 343 _________OP___ -1 16.5000 90.7000 TC 30 16.0890 91.3145 1 14 305
1928275N15094 1928 57 NI BB NOT_NAMED 1928-10-01 15:00:00 TS 16.6861 90.4560 main 402 402 _________PO___ -1 16.8721 90.2121 TC 31 16.5000 90.7000 1 12 307
1928275N15094 1928 57 NI BB NOT_NAMED 1928-10-01 18:00:00 TS 17.0359 89.9884 main 450 445 _________OP___ -1 17.2000 89.8000 TC 32 16.8718 90.1768 1 11 308
1928275N15094 1928 57 NI BB NOT_NAMED 1928-10-01 21:00:00 TS 17.3616 89.5367 main 437 390 _________PP___ -1 17.5149 89.3499 TC 33 17.2083 89.7234 1 11 306
1928275N15094 1928 57 NI BB NOT_NAMED 1928-10-02 00:00:00 TS 17.6579 89.1042 main 383 337 _________OP___ -1 17.8000 88.9000 TC 34 17.5158 89.3084 1 10 305
1928275N15094 1928 57 NI BB NOT_NAMED 1928-10-02 03:00:00 TS 17.9287 88.6749 main 337 276 _________PO___ -1 18.0574 88.4498 TC 36 17.8000 88.9000 2 10 302
1928275N15094 1928 57 NI BB NOT_NAMED 1928-10-02 06:00:00 TS 18.1877 88.2207 main 276 231 _________OP___ -1 18.3000 88.0000 TC 39 18.0754 88.4414 2 10 301
1928275N15094 1928 57 NI BB NOT_NAMED 1928-10-02 09:00:00 TS 18.4399 87.7634 main 231 173 _________PP___ -1 18.5499 87.5424 TC 42 18.3298 87.9844 2 10 300
1928275N15094 1928 57 NI BB NOT_NAMED 1928-10-02 12:00:00 TS 18.6846 87.3176 main 173 133 _________OP___ -1 18.8000 87.1000 TC 45 18.5692 87.5352 2 10 301
1928275N15094 1928 57 NI BB NOT_NAMED 1928-10-02 15:00:00 TS 18.9287 86.8962 main 133 88 _________PO___ -1 19.0574 86.6924 TC 45 18.8000 87.1000 3 9 302
1928275N15094 1928 57 NI BB NOT_NAMED 1928-10-02 18:00:00 TS 19.1637 86.5026 main 88 54 _________OP___ -1 19.3000 86.3000 TC 45 19.0274 86.7051 3 9 301
1928275N15094 1928 57 NI BB NOT_NAMED 1928-10-02 21:00:00 TS 19.3744 86.1180 main 54 22 _________PP___ -1 19.4998 85.9147 TC 45 19.2489 86.3214 3 9 300
1928275N15094 1928 57 NI BB NOT_NAMED 1928-10-03 00:00:00 TS 19.5855 85.7135 main 22 0 _________OP___ -1 19.7000 85.5000 TC 45 19.4710 85.9269 3 9 299
1928275N15094 1928 57 NI BB NOT_NAMED 1928-10-03 03:00:00 TS 19.8212 85.2612 main 0 0 _________PO___ -1 19.9424 85.0224 TC 41 19.7000 85.5000 3 10 298
1928275N15094 1928 57 NI BB NOT_NAMED 1928-10-03 06:00:00 TS 20.0695 84.7493 main 0 0 _________OP___ -1 20.2000 84.5000 TC 37 19.9390 84.9987 3 11 297
1928275N15094 1928 57 NI BB NOT_NAMED 1928-10-03 09:00:00 TS 20.3177 84.2074 main 0 0 _________PP___ -1 20.4500 83.9499 TC 33 20.1854 84.4649 3 11 296
1928275N15094 1928 57 NI BB NOT_NAMED 1928-10-03 12:00:00 TS 20.5695 83.6618 main 0 0 _________OP___ -1 20.7000 83.4000 TC 30 20.4390 83.9236 3 11 297
1928275N15094 1928 57 NI BB NOT_NAMED 1928-10-03 15:00:00 TS 20.8212 83.1387 main 0 0 _________PO___ -1 20.9424 82.8773 TC 30 20.7000 83.4000 1 11 299
1928275N15094 1928 57 NI BB NOT_NAMED 1928-10-03 18:00:00 TS 21.1003 82.6301 main 0 0 _________OP___ -1 21.2000 82.4000 TC 30 21.0005 82.8601 1 11 303
1928275N15094 1928 57 NI BB NOT_NAMED 1928-10-03 21:00:00 TS 21.4165 82.1420 main 0 0 _________PP___ -1 21.5300 81.9328 TC 30 21.3029 82.3512 1 10 306
1928275N15094 1928 57 NI BB NOT_NAMED 1928-10-04 00:00:00 TS 21.6894 81.7582 main 0 0 _________OP___ -1 21.8000 81.6000 TC 30 21.5788 81.9165 1 7 307
1928275N15094 1928 57 NI BB NOT_NAMED 1928-10-04 03:00:00 TS 21.8399 81.5449 main 0 0 _________PO___ -1 21.8798 81.4897 TC 30 21.8000 81.6000 1 3 310
1928275N15094 1928 57 NI BB NOT_NAMED 1928-10-04 06:00:00 TS 21.9138 81.4718 main 0 0 _________OP___ -1 21.9000 81.5000 TC 30 21.9277 81.4437 1 2 330
1928275N15094 1928 57 NI BB NOT_NAMED 1928-10-04 09:00:00 TS 21.9971 81.4494 main 0 0 _________PP___ -1 21.9925 81.4925 TC 30 22.0016 81.4064 1 2 351
1928275N15094 1928 57 NI BB NOT_NAMED 1928-10-04 12:00:00 TS 22.0749 81.4705 main 0 0 _________OP___ -1 22.1000 81.5000 TC 30 22.0499 81.4409 1 2 15
1928275N15094 1928 57 NI BB NOT_NAMED 1928-10-04 15:00:00 TS 22.1500 81.4963 main 0 0 _________PO___ -1 22.2000 81.4925 TC 30 22.1000 81.5000 1 2 0
1928275N15094 1928 57 NI BB NOT_NAMED 1928-10-04 18:00:00 TS 22.2444 81.4972 main 0 0 _________OP___ -1 22.3000 81.5000 TC 30 22.1887 81.4944 1 2 6
1928275N15094 1928 57 NI BB NOT_NAMED 1928-10-04 21:00:00 TS 22.3387 81.5201 main 0 0 _________PP___ -1 22.3925 81.5350 TC 30 22.2849 81.5051 1 2 20
1928275N15094 1928 57 NI BB NOT_NAMED 1928-10-05 00:00:00 TS 22.4443 81.5691 main 0 0 _________OP___ -1 22.5000 81.6000 TC 30 22.3887 81.5382 1 3 26
1928275N15094 1928 57 NI BB NOT_NAMED 1928-10-05 03:00:00 TS 22.5750 81.6425 main 0 0 _________PO___ -1 22.6500 81.6850 TC 30 22.5000 81.6000 1 3 30
1928275N15094 1928 57 NI BB NOT_NAMED 1928-10-05 06:00:00 TS 22.7109 81.7380 main 0 0 _________OP___ -1 22.8000 81.8000 TC 30 22.6218 81.6760 1 3 38
1928275N15094 1928 57 NI BB NOT_NAMED 1928-10-05 09:00:00 TS 22.8286 81.8551 main 0 0 _________PP___ -1 22.9075 81.9276 TC 30 22.7498 81.7826 1 3 48
1928275N15094 1928 57 NI BB NOT_NAMED 1928-10-05 12:00:00 TS 22.9390 82.0114 main 0 0 _________OP___ -1 23.0000 82.1000 TC 30 22.8780 81.9229 1 4 56
1928275N15094 1928 57 NI BB NOT_NAMED 1928-10-05 15:00:00 TS 23.0500 82.2175 main 0 0 _________PO___ -1 23.1000 82.3350 TC 30 23.0000 82.1000 1 4 62
1928275N15094 1928 57 NI BB NOT_NAMED 1928-10-05 18:00:00 TS 23.1493 82.4370 main 0 0 _________OP___ -1 23.2000 82.6000 TC 30 23.1112 82.3148 1 5 65
1928275N15094 1928 57 NI BB NOT_NAMED 1928-10-05 21:00:00 TS 23.2478 82.6778 main 0 0 _________PP___ -1 23.3000 82.8549 TC 30 23.2130 82.5597 1 5 67
1928275N15094 1928 57 NI BB NOT_NAMED 1928-10-06 00:00:00 TS 23.3388 82.9165 main 0 0 _________OP___ -1 23.4000 83.1000 TC 30 23.3083 82.8247 1 4 69
1928275N15094 1928 57 NI BB NOT_NAMED 1928-10-06 03:00:00 NR 23.4000 83.1000 main 0 __________O___ -1 TC 23.4000 83.1000 1 4 70

About IBTrACS Database

This database is a web-friendly format of International Best Track Archive for Climate Stewardship (IBTrACS), a global best track data archive curated by NOAA dating back to 1842.

Updated: 2021-11-26